Time;durP1;ratioP1;P1;durP2;ratioP2;P2;SDS_P1;SDS_P2;PMS_P1;PMS_P2;Temp;Humidity;BMP_temperature;BMP_pressure;BME280_temperature;BME280_humidity;BME280_pressure;Samples;Min_cycle;Max_cycle;Signal;HPM_P1;HPM_P2
2022/09/04 00:00:18;;;;;;;9.63;8.70;;;;;;;21.80;84.26;99503.06;4949077;29;20452;-87
2022/09/04 00:03:19;;;;;;;10.80;8.63;;;;;;;21.83;84.62;99509.94;4949086;29;20220;-86
2022/09/04 00:05:51;;;;;;;9.77;8.77;;;;;;;21.72;84.51;99484.16;4953753;29;20187;-86
2022/09/04 00:08:51;;;;;;;10.37;8.00;;;;;;;21.76;83.44;99491.03;4969145;29;20193;-86
2022/09/04 00:11:43;;;;;;;9.57;7.73;;;;;;;21.88;83.33;99522.00;4969500;29;20249;-86
2022/09/04 00:14:41;;;;;;;12.63;8.00;;;;;;;21.89;82.89;99528.91;4975048;29;20165;-87
2022/09/04 00:17:25;;;;;;;9.10;7.57;;;;;;;21.74;83.88;99528.84;4912732;29;20201;-86
2022/09/04 00:19:58;;;;;;;10.30;7.33;;;;;;;20.41;84.12;99308.00;4918388;29;20170;-86
2022/09/04 00:22:44;;;;;;;9.03;7.43;;;;;;;21.71;84.60;99545.16;4914790;29;20281;-84
2022/09/04 00:25:32;;;;;;;9.27;7.60;;;;;;;21.82;84.14;99544.28;4911192;29;20628;-84
2022/09/04 00:28:04;;;;;;;9.30;7.57;;;;;;;21.73;83.38;99546.00;4910595;29;20202;-85
2022/09/04 00:30:31;;;;;;;9.60;7.40;;;;;;;21.38;84.22;99498.72;4911877;29;20207;-85
2022/09/04 00:33:19;;;;;;;9.57;7.80;;;;;;;21.59;85.20;99554.59;4918512;29;20234;-85
2022/09/04 00:35:54;;;;;;;9.30;7.17;;;;;;;21.60;85.00;99552.00;4933772;29;20190;-85
2022/09/04 00:38:39;;;;;;;8.97;7.50;;;;;;;21.60;85.63;99562.31;4931760;29;20178;-85
2022/09/04 00:41:22;;;;;;;9.70;7.03;;;;;;;20.83;89.84;99476.22;4930122;29;20197;-85
2022/09/04 00:43:54;;;;;;;9.43;7.33;;;;;;;21.16;94.13;99566.47;4931043;29;20166;-85
2022/09/04 00:46:40;;;;;;;10.07;7.37;;;;;;;20.89;100.00;99561.16;4930098;29;20204;-86
2022/09/04 00:49:23;;;;;;;10.63;7.23;;;;;;;20.89;100.00;99563.75;4929974;29;20174;-85
2022/09/04 00:52:05;;;;;;;9.77;7.67;;;;;;;20.72;100.00;99560.22;4945759;29;20251;-86
2022/09/04 00:54:49;;;;;;;12.80;8.63;;;;;;;20.60;100.00;99561.88;5003461;28;20195;-86
2022/09/04 00:57:23;;;;;;;12.10;10.77;;;;;;;20.56;100.00;99554.13;5010056;28;20187;-86
2022/09/04 01:00:15;;;;;;;13.27;11.37;;;;;;;20.41;100.00;99549.72;5009291;28;20231;-86
2022/09/04 01:02:49;;;;;;;12.40;10.50;;;;;;;20.43;100.00;99550.63;5008808;28;20272;-86
2022/09/04 01:05:53;;;;;;;11.77;9.47;;;;;;;20.46;100.00;99555.75;5007844;28;20520;-85
2022/09/04 01:08:58;;;;;;;13.93;9.07;;;;;;;20.42;100.00;99559.19;5022837;28;20198;-86
2022/09/04 01:12:05;;;;;;;11.30;8.90;;;;;;;20.27;100.00;99559.06;5008748;28;20159;-85
2022/09/04 01:14:45;;;;;;;12.67;8.90;;;;;;;20.14;100.00;99546.94;4951414;29;20189;-85
2022/09/04 01:17:32;;;;;;;10.80;8.80;;;;;;;20.20;100.00;99565.00;4949877;29;20215;-86
2022/09/04 01:20:18;;;;;;;11.53;8.67;;;;;;;20.10;100.00;99564.91;4948345;29;20200;-85
2022/09/04 01:23:15;;;;;;;11.77;9.30;;;;;;;20.02;100.00;99565.69;4947673;29;20224;-85
2022/09/04 01:25:59;;;;;;;11.47;8.37;;;;;;;19.92;100.00;99563.91;4948704;29;20225;-85
2022/09/04 01:28:49;;;;;;;11.03;8.60;;;;;;;19.63;100.00;99528.50;4948287;29;20240;-86
2022/09/04 01:31:33;;;;;;;10.33;8.53;;;;;;;19.87;100.00;99560.44;4943307;29;20204;-85
2022/09/04 01:34:33;;;;;;;11.63;8.67;;;;;;;19.91;100.00;99572.44;4929815;29;20226;-85
2022/09/04 01:37:40;;;;;;;12.30;9.00;;;;;;;19.96;100.00;99564.78;4937425;29;20254;-85
2022/09/04 01:40:30;;;;;;;12.43;8.60;;;;;;;20.00;100.00;99562.25;4935496;29;20162;-86
2022/09/04 01:42:59;;;;;;;13.27;9.13;;;;;;;19.23;100.00;99460.44;4943229;29;20299;-86
2022/09/04 01:45:46;;;;;;;12.80;9.00;;;;;;;19.98;100.00;99568.22;4948335;29;20199;-86
2022/09/04 01:48:19;;;;;;;13.67;9.50;;;;;;;19.72;100.00;99516.59;4948851;29;20169;-85
2022/09/04 01:50:48;;;;;;;13.37;9.27;;;;;;;20.01;100.00;99563.13;4970995;28;20187;-86
2022/09/04 01:53:22;;;;;;;12.10;9.03;;;;;;;19.99;100.00;99559.69;5008504;28;20188;-86
2022/09/04 01:56:11;;;;;;;12.63;8.83;;;;;;;19.00;100.00;99390.94;5007470;28;20225;-85
2022/09/04 01:58:52;;;;;;;10.90;8.87;;;;;;;20.04;100.00;99565.72;5008353;28;20163;-85
2022/09/04 02:01:17;;;;;;;12.40;9.10;;;;;;;20.17;100.00;99564.09;5010346;28;20187;-86
2022/09/04 02:04:06;;;;;;;11.27;8.90;;;;;;;20.24;100.00;99571.91;5014585;28;20223;-85
2022/09/04 02:06:38;;;;;;;12.33;9.60;;;;;;;20.31;100.00;99578.81;5011744;28;20169;-85
2022/09/04 02:09:22;;;;;;;12.87;9.43;;;;;;;20.31;100.00;99578.81;5007088;28;20639;-86
2022/09/04 02:11:58;;;;;;;12.17;8.90;;;;;;;19.89;100.00;99498.75;5004570;28;20185;-85
2022/09/04 02:14:46;;;;;;;10.47;8.70;;;;;;;20.42;100.00;99584.91;5007145;28;20166;-85
2022/09/04 02:17:19;;;;;;;12.77;8.90;;;;;;;20.49;100.00;99583.25;5007241;28;20171;-85
2022/09/04 02:20:00;;;;;;;13.53;8.97;;;;;;;20.43;100.00;99581.50;5007390;28;20197;-87
2022/09/04 02:22:42;;;;;;;15.00;8.73;;;;;;;20.44;100.00;99580.63;5005557;28;20199;-86
2022/09/04 02:25:20;;;;;;;10.83;9.07;;;;;;;20.47;100.00;99572.06;5014663;28;20189;-86
2022/09/04 02:28:07;;;;;;;10.93;8.77;;;;;;;19.00;100.00;99357.59;5025230;28;20165;-86
2022/09/04 02:30:50;;;;;;;10.70;8.70;;;;;;;19.67;100.00;99448.03;5009539;28;20178;-86
2022/09/04 02:33:24;;;;;;;10.83;8.43;;;;;;;20.38;100.00;99570.28;5026558;28;20233;-86
2022/09/04 02:36:12;;;;;;;10.70;8.73;;;;;;;19.92;100.00;99480.78;5026703;28;20169;-86
2022/09/04 02:38:57;;;;;;;10.30;8.93;;;;;;;19.65;100.00;99444.59;5027697;28;20198;-86
2022/09/04 02:41:23;;;;;;;11.03;8.53;;;;;;;20.31;100.00;99562.53;5027775;28;20181;-86
2022/09/04 02:43:57;;;;;;;11.00;8.87;;;;;;;18.80;100.00;99330.88;5029824;28;20195;-86
2022/09/04 02:46:44;;;;;;;11.47;9.10;;;;;;;19.98;100.00;99563.09;5027159;28;20182;-86
2022/09/04 02:49:12;;;;;;;11.17;9.43;;;;;;;19.82;100.00;99571.50;5024753;28;20166;-85
2022/09/04 02:52:02;;;;;;;12.17;9.43;;;;;;;19.91;100.00;99567.28;5025134;28;20194;-86
2022/09/04 02:54:39;;;;;;;11.57;9.13;;;;;;;19.69;100.00;99569.69;5025543;28;20162;-85
2022/09/04 02:57:26;;;;;;;12.30;9.57;;;;;;;19.64;100.00;99571.34;5025068;28;20202;-85
2022/09/04 02:59:52;;;;;;;14.33;9.50;;;;;;;19.54;100.00;99570.38;5008105;28;20220;-85
2022/09/04 03:02:45;;;;;;;14.77;10.10;;;;;;;18.88;100.00;99488.31;5025623;28;20202;-86
2022/09/04 03:05:31;;;;;;;14.73;9.67;;;;;;;19.28;100.00;99570.03;4984378;28;20291;-85
2022/09/04 03:07:56;;;;;;;13.40;9.90;;;;;;;19.20;100.00;99569.09;4984404;28;20278;-85
2022/09/04 03:10:40;;;;;;;13.23;10.10;;;;;;;18.91;100.00;99520.81;4986116;28;20219;-85
2022/09/04 03:13:33;;;;;;;14.97;9.90;;;;;;;18.45;100.00;99456.13;4984927;28;20187;-85
2022/09/04 03:16:15;;;;;;;13.33;10.13;;;;;;;18.91;100.00;99516.56;4984433;28;20195;-85
2022/09/04 03:19:20;;;;;;;13.57;9.77;;;;;;;18.82;100.00;99531.84;4985846;28;20236;-85
2022/09/04 03:21:55;;;;;;;13.93;10.53;;;;;;;18.94;100.00;99565.34;4989282;28;20244;-85
2022/09/04 03:24:45;;;;;;;13.97;10.33;;;;;;;18.94;100.00;99567.91;4972411;28;20202;-86
2022/09/04 03:27:14;;;;;;;13.93;10.63;;;;;;;18.67;100.00;99517.13;4984029;28;20223;-85
2022/09/04 03:29:59;;;;;;;13.20;10.00;;;;;;;19.06;100.00;99572.34;4968856;28;20202;-84
2022/09/04 03:32:34;;;;;;;13.83;10.07;;;;;;;18.03;100.00;99389.75;4987524;28;20186;-85
2022/09/04 03:35:18;;;;;;;13.93;10.10;;;;;;;18.48;100.00;99471.56;4988574;28;20187;-87
2022/09/04 03:38:02;;;;;;;13.50;10.27;;;;;;;19.11;100.00;99589.53;4984112;28;20253;-85
2022/09/04 03:41:05;;;;;;;15.90;10.80;;;;;;;19.09;100.00;99585.22;4984023;28;20168;-85
2022/09/04 03:43:33;;;;;;;13.57;10.37;;;;;;;19.15;100.00;99591.28;5005267;28;20230;-86
2022/09/04 03:46:46;;;;;;;16.07;10.93;;;;;;;19.14;100.00;99594.72;4988755;28;20190;-87
2022/09/04 03:49:41;;;;;;;16.17;10.80;;;;;;;19.17;100.00;99593.88;4948645;29;20196;-86
2022/09/04 03:52:38;;;;;;;14.87;10.80;;;;;;;18.23;100.00;99415.66;4947408;29;20224;-87
2022/09/04 03:55:22;;;;;;;14.83;10.43;;;;;;;19.17;100.00;99597.28;4966032;29;20204;-85
2022/09/04 03:57:47;;;;;;;15.57;11.03;;;;;;;19.18;100.00;99593.88;4967271;29;20180;-86
2022/09/04 04:00:21;;;;;;;14.93;10.57;;;;;;;19.17;100.00;99604.16;4965117;29;20177;-86
2022/09/04 04:03:04;;;;;;;16.70;10.80;;;;;;;19.12;100.00;99608.34;4946237;29;20207;-86
2022/09/04 04:06:18;;;;;;;15.00;10.87;;;;;;;19.14;100.00;99604.09;4945254;29;20197;-86
2022/09/04 04:09:12;;;;;;;17.67;11.47;;;;;;;19.29;100.00;99622.25;4906600;29;20190;-86
2022/09/04 04:12:11;;;;;;;16.23;11.27;;;;;;;19.37;100.00;99624.06;4908508;29;20175;-87
2022/09/04 04:15:06;;;;;;;14.87;10.87;;;;;;;19.41;100.00;99635.28;4908296;29;20189;-86
2022/09/04 04:17:50;;;;;;;14.07;10.33;;;;;;;19.48;100.00;99631.06;4907925;29;20187;-86
2022/09/04 04:20:21;;;;;;;16.43;11.10;;;;;;;19.57;100.00;99647.47;4913598;29;20186;-84
2022/09/04 04:23:28;;;;;;;15.43;10.40;;;;;;;18.84;100.00;99496.81;4930856;29;20208;-86
2022/09/04 04:25:59;;;;;;;15.43;11.13;;;;;;;19.81;100.00;99655.44;4966525;29;20192;-86
2022/09/04 04:28:34;;;;;;;17.07;11.40;;;;;;;19.55;100.00;99653.44;4966516;29;20165;-86
2022/09/04 04:31:34;;;;;;;14.70;11.07;;;;;;;19.15;100.00;99565.63;4964871;29;20165;-86
2022/09/04 04:34:25;;;;;;;14.20;10.60;;;;;;;19.66;100.00;99613.31;4965737;29;20283;-86
2022/09/04 04:37:01;;;;;;;14.07;10.57;;;;;;;19.50;100.00;99565.19;4963746;29;20247;-86
2022/09/04 04:39:38;;;;;;;13.20;10.70;;;;;;;18.94;100.00;99462.72;4963257;29;20229;-86
2022/09/04 04:42:19;;;;;;;13.63;10.60;;;;;;;20.09;100.00;99677.13;4968224;29;20199;-86
2022/09/04 04:47:51;;;;;;;17.13;10.70;;;;;;;20.12;100.00;99681.44;5010537;28;20175;-85
2022/09/04 04:50:58;;;;;;;13.87;10.60;;;;;;;20.11;100.00;99670.31;4992319;28;20659;-86
2022/09/04 04:53:31;;;;;;;12.67;10.17;;;;;;;20.22;100.00;99688.41;4994206;28;20219;-86
2022/09/04 04:56:02;;;;;;;15.43;10.63;;;;;;;20.16;100.00;99689.19;4993077;28;20178;-85
2022/09/04 04:58:57;;;;;;;12.20;10.03;;;;;;;19.97;100.00;99616.19;4987390;28;20199;-86
2022/09/04 05:01:48;;;;;;;14.40;10.10;;;;;;;20.61;100.00;99701.66;4988899;28;20160;-85
2022/09/04 05:04:30;;;;;;;13.60;10.37;;;;;;;20.06;100.00;99637.69;4987780;28;20290;-86
2022/09/04 05:07:02;;;;;;;13.57;10.30;;;;;;;20.24;100.00;99656.78;4987279;28;20212;-86
2022/09/04 05:09:46;;;;;;;15.23;10.90;;;;;;;19.93;100.00;99591.31;4986555;28;20201;-86
2022/09/04 05:12:56;;;;;;;14.83;10.20;;;;;;;20.18;100.00;99614.66;4990496;28;20152;-86
2022/09/04 05:15:41;;;;;;;12.43;9.00;;;;;;;20.77;100.00;99718.06;4969412;29;20216;-86
2022/09/04 05:18:10;;;;;;;10.67;8.20;;;;;;;20.74;100.00;99733.50;4966649;29;20201;-86
2022/09/04 05:20:49;;;;;;;11.23;8.53;;;;;;;20.08;100.00;99641.16;4949393;29;20192;-86
2022/09/04 05:23:35;;;;;;;10.63;8.57;;;;;;;20.46;100.00;99728.09;4965797;29;20220;-86
2022/09/04 05:26:30;;;;;;;10.93;8.30;;;;;;;20.17;100.00;99708.94;4966309;29;20200;-86
2022/09/04 05:29:04;;;;;;;10.93;7.77;;;;;;;17.30;100.00;99205.22;4927290;29;20198;-86
2022/09/04 05:31:36;;;;;;;11.93;8.73;;;;;;;20.66;100.00;99742.88;4926407;29;20173;-86
2022/09/04 05:34:42;;;;;;;11.23;8.30;;;;;;;20.29;100.00;99660.25;4927799;29;20305;-87
2022/09/04 05:37:17;;;;;;;13.70;8.50;;;;;;;20.88;100.00;99765.34;4927085;29;20170;-86
2022/09/04 05:39:42;;;;;;;12.00;8.63;;;;;;;20.78;100.00;99763.56;4931508;29;20192;-86
2022/09/04 05:42:35;;;;;;;11.90;8.33;;;;;;;20.00;99.80;99584.50;4930709;29;20269;-85
2022/09/04 05:45:28;;;;;;;10.60;8.03;;;;;;;21.13;99.32;99755.28;4931195;29;20254;-85
2022/09/04 05:48:18;;;;;;;12.70;8.43;;;;;;;20.97;99.89;99753.44;4931732;29;20198;-85
2022/09/04 05:51:05;;;;;;;11.10;8.80;;;;;;;20.85;100.00;99747.34;4965624;28;20285;-86
2022/09/04 05:53:52;;;;;;;14.80;8.67;;;;;;;20.79;100.00;99718.97;4926159;29;20219;-85
2022/09/04 05:56:54;;;;;;;10.67;8.53;;;;;;;21.00;98.71;99762.88;4926103;29;20180;-85
2022/09/04 05:59:30;;;;;;;14.77;9.00;;;;;;;20.92;100.00;99759.38;4927141;29;20213;-85
2022/09/04 06:02:13;;;;;;;11.23;8.60;;;;;;;21.14;98.41;99767.31;4949300;29;20193;-84
2022/09/04 06:05:10;;;;;;;10.83;8.33;;;;;;;21.33;96.75;99764.88;4940587;28;20174;-87
2022/09/04 06:07:54;;;;;;;11.73;8.07;;;;;;;20.34;97.20;99607.13;5024952;28;20183;-85
2022/09/04 06:10:29;;;;;;;12.53;8.57;;;;;;;21.63;95.69;99754.72;4989753;28;20171;-86
2022/09/04 06:13:33;;;;;;;14.00;8.80;;;;;;;21.39;96.87;99744.28;5007905;28;20166;-86
2022/09/04 06:16:10;;;;;;;11.70;8.93;;;;;;;21.48;97.40;99750.34;5007486;28;20254;-86
2022/09/04 06:19:12;;;;;;;13.87;8.90;;;;;;;21.53;94.87;99753.84;5007864;28;20175;-86
2022/09/04 06:22:01;;;;;;;10.50;8.30;;;;;;;21.76;92.49;99749.63;5004552;28;20587;-85
2022/09/04 06:24:36;;;;;;;10.90;8.43;;;;;;;21.82;92.64;99750.50;5006846;28;20174;-85
2022/09/04 06:27:10;;;;;;;13.47;8.50;;;;;;;21.86;92.76;99744.53;5006003;28;20167;-86
2022/09/04 06:29:41;;;;;;;10.40;8.07;;;;;;;21.64;94.71;99739.28;5005887;28;20165;-85
2022/09/04 06:32:31;;;;;;;10.63;8.90;;;;;;;21.24;97.62;99747.63;5005620;28;20159;-86
2022/09/04 06:35:27;;;;;;;13.00;9.10;;;;;;;21.74;94.59;99750.50;5005906;28;20172;-85
2022/09/04 06:38:16;;;;;;;12.07;8.83;;;;;;;21.68;93.61;99747.88;5007087;28;20163;-85
2022/09/04 06:40:54;;;;;;;11.70;8.43;;;;;;;21.88;91.55;99753.16;5006131;28;20172;-86
2022/09/04 06:44:00;;;;;;;12.13;9.57;;;;;;;21.87;91.26;99717.91;5003876;28;20193;-86
2022/09/04 06:46:37;;;;;;;13.93;9.97;;;;;;;21.94;93.53;99754.06;4944090;29;20220;-87
2022/09/04 06:49:17;;;;;;;11.87;9.70;;;;;;;19.51;92.67;99338.34;4925464;29;20190;-85
2022/09/04 06:52:17;;;;;;;15.13;10.60;;;;;;;22.18;90.88;99748.97;4925828;29;20217;-85
2022/09/04 06:55:15;;;;;;;13.57;10.10;;;;;;;22.11;89.45;99736.06;4872846;29;20227;-86
2022/09/04 06:58:09;;;;;;;13.80;9.33;;;;;;;21.31;92.30;99638.66;4871124;29;20224;-85
2022/09/04 07:00:52;;;;;;;14.50;9.77;;;;;;;21.85;91.61;99722.16;4833460;29;20189;-86
2022/09/04 07:03:27;;;;;;;14.03;9.63;;;;;;;21.77;92.76;99745.34;4833805;29;20213;-86
2022/09/04 07:06:28;;;;;;;16.03;10.17;;;;;;;21.97;91.48;99738.59;4833331;29;20722;-85
2022/09/04 07:09:19;;;;;;;13.60;9.67;;;;;;;21.44;86.98;99582.88;4797020;29;20207;-86
2022/09/04 07:11:59;;;;;;;13.73;9.73;;;;;;;22.29;87.25;99736.09;4801359;30;20198;-85
2022/09/04 07:15:13;;;;;;;14.23;10.50;;;;;;;21.65;88.44;99674.00;4800280;30;20275;-85
2022/09/04 07:17:52;;;;;;;14.07;10.10;;;;;;;21.76;91.51;99731.59;4796406;30;20209;-86
2022/09/04 07:20:35;;;;;;;14.70;10.10;;;;;;;21.54;90.76;99660.22;4798017;30;20262;-86
2022/09/04 07:23:09;;;;;;;14.57;10.30;;;;;;;22.27;87.13;99718.03;4825962;29;20220;-86
2022/09/04 07:26:11;;;;;;;12.13;9.77;;;;;;;22.61;85.92;99736.13;4854082;29;20191;-86
2022/09/04 07:28:58;;;;;;;13.23;10.33;;;;;;;22.92;82.20;99733.59;4836953;29;20176;-85
2022/09/04 07:31:48;;;;;;;16.33;11.83;;;;;;;23.19;79.52;99724.06;4872965;29;20196;-85
2022/09/04 07:34:45;;;;;;;11.97;9.23;;;;;;;22.00;78.65;99500.53;4869855;29;20362;-86
2022/09/04 07:37:49;;;;;;;14.23;10.37;;;;;;;23.73;75.80;99717.94;4889161;29;20192;-86
2022/09/04 07:40:43;;;;;;;13.83;10.27;;;;;;;23.85;75.71;99721.31;4853824;29;20195;-86
2022/09/04 07:43:41;;;;;;;11.87;9.90;;;;;;;24.40;71.57;99731.38;4832284;29;20228;-86
2022/09/04 07:46:29;;;;;;;12.20;9.83;;;;;;;24.17;71.56;99720.31;4847445;29;20788;-86
2022/09/04 07:49:08;;;;;;;13.73;10.43;;;;;;;24.54;70.66;99732.13;4838912;29;20193;-86
2022/09/04 07:52:15;;;;;;;12.80;10.80;;;;;;;24.88;68.76;99735.38;4831358;29;20204;-85
2022/09/04 07:54:46;;;;;;;14.73;11.73;;;;;;;24.75;68.36;99747.50;4812512;29;20581;-85
2022/09/04 07:57:38;;;;;;;13.80;10.87;;;;;;;23.94;69.32;99650.56;4812709;29;20193;-85
2022/09/04 08:00:09;;;;;;;15.87;11.30;;;;;;;23.49;70.89;99652.53;4814390;29;20202;-87
2022/09/04 08:02:55;;;;;;;13.03;11.13;;;;;;;24.67;69.46;99743.28;4813411;29;20243;-85
2022/09/04 08:05:40;;;;;;;13.33;11.27;;;;;;;25.11;66.61;99695.41;4813141;29;20198;-85
2022/09/04 08:08:39;;;;;;;11.70;9.50;;;;;;;25.56;65.05;99751.13;4812330;29;20213;-86
2022/09/04 08:11:15;;;;;;;13.23;10.00;;;;;;;25.34;66.05;99728.00;4813053;29;20218;-85
2022/09/04 08:13:52;;;;;;;13.57;10.20;;;;;;;25.39;65.30;99754.72;4814172;29;20594;-86
2022/09/04 08:16:23;;;;;;;13.50;10.77;;;;;;;25.77;65.07;99745.69;4818975;29;20269;-85
2022/09/04 08:19:16;;;;;;;13.93;10.53;;;;;;;25.90;64.18;99741.22;4853244;29;20285;-85
2022/09/04 08:21:44;;;;;;;12.43;10.60;;;;;;;26.41;61.56;99729.28;4928024;29;20261;-86
2022/09/04 08:24:15;;;;;;;11.77;10.57;;;;;;;26.69;61.28;99745.28;4928135;29;20185;-86
2022/09/04 08:27:17;;;;;;;13.65;11.60;;;;;;;26.58;61.39;99735.06;4926609;29;20235;-85
2022/09/04 08:29:56;;;;;;;12.30;10.52;;;;;;;26.41;61.56;99737.06;4926841;29;20206;-85
2022/09/04 08:32:43;;;;;;;13.77;10.65;;;;;;;25.48;64.34;99702.81;5014034;28;20185;-86
2022/09/04 08:35:27;;;;;;;13.10;10.75;;;;;;;26.24;63.41;99744.22;5027014;28;20548;-86
2022/09/04 08:38:01;;;;;;;14.32;10.55;;;;;;;27.03;60.04;99730.88;5024456;28;20162;-86
2022/09/04 08:40:26;;;;;;;12.50;10.63;;;;;;;26.86;60.21;99732.91;5025496;28;20167;-86
2022/09/04 08:43:23;;;;;;;14.95;11.40;;;;;;;27.00;60.27;99730.94;5024410;28;20728;-86
2022/09/04 08:46:02;;;;;;;14.05;11.77;;;;;;;27.13;57.82;99651.84;5024405;28;20549;-86
2022/09/04 08:48:49;;;;;;;13.13;11.68;;;;;;;27.08;58.22;99734.28;5023511;28;20182;-86
2022/09/04 08:51:55;;;;;;;15.38;12.25;;;;;;;26.24;61.57;99734.72;5011122;28;20175;-86
2022/09/04 08:54:36;;;;;;;14.60;13.00;;;;;;;25.08;65.38;99726.53;5003942;28;20164;-86
2022/09/04 08:57:30;;;;;;;17.83;13.10;;;;;;;25.02;65.99;99725.75;5003525;28;20230;-86
2022/09/04 09:00:16;;;;;;;17.50;13.90;;;;;;;25.43;65.41;99725.31;5004421;28;20171;-86
2022/09/04 09:03:21;;;;;;;18.33;13.27;;;;;;;25.84;63.43;99723.13;5006872;28;20255;-85
2022/09/04 09:06:05;;;;;;;13.05;11.65;;;;;;;27.10;59.93;99727.28;5006626;28;20260;-86
2022/09/04 09:08:40;;;;;;;13.57;11.38;;;;;;;26.88;58.61;99680.03;4987954;28;20178;-86
2022/09/04 09:11:33;;;;;;;13.70;12.10;;;;;;;27.39;58.33;99729.34;5005669;28;20177;-86
2022/09/04 09:14:08;;;;;;;13.43;12.02;;;;;;;27.74;57.05;99739.09;5004478;28;20179;-86
2022/09/04 09:16:48;;;;;;;13.95;11.93;;;;;;;27.93;56.63;99737.84;5003058;28;20196;-86
2022/09/04 09:19:16;;;;;;;14.43;12.45;;;;;;;28.48;55.30;99735.75;5005199;28;20559;-86
2022/09/04 09:22:03;;;;;;;14.88;12.60;;;;;;;28.71;54.73;99734.34;5015642;28;20185;-86
2022/09/04 09:24:50;;;;;;;13.43;11.80;;;;;;;27.89;56.70;99734.44;5026481;28;20248;-86
2022/09/04 09:27:53;;;;;;;14.88;12.80;;;;;;;26.85;59.69;99731.19;5024969;28;20157;-86
2022/09/04 09:30:21;;;;;;;14.30;12.68;;;;;;;26.54;60.47;99729.94;5022927;28;20175;-85
2022/09/04 09:32:50;;;;;;;14.90;13.27;;;;;;;26.31;61.24;99746.75;5030271;28;20226;-85
2022/09/04 09:35:35;;;;;;;14.75;13.25;;;;;;;26.16;61.59;99749.53;5009899;28;20189;-85
2022/09/04 09:38:29;;;;;;;14.95;13.18;;;;;;;26.06;61.79;99755.69;5027275;28;20642;-85
2022/09/04 09:41:13;;;;;;;17.13;13.65;;;;;;;26.27;61.69;99762.34;5034244;28;20178;-85
2022/09/04 09:44:00;;;;;;;15.75;13.45;;;;;;;26.29;61.29;99758.84;5035614;28;20196;-86
2022/09/04 09:46:47;;;;;;;13.38;11.98;;;;;;;26.87;58.54;99742.41;5036142;28;20185;-86
2022/09/04 09:49:18;;;;;;;15.15;12.23;;;;;;;27.88;54.76;99745.72;5021467;28;20180;-86
2022/09/04 09:51:59;;;;;;;13.90;12.40;;;;;;;28.13;54.31;99738.28;5025872;28;20651;-86
2022/09/04 09:54:42;;;;;;;14.27;12.02;;;;;;;28.21;53.55;99744.16;5008772;28;20164;-86
2022/09/04 09:57:42;;;;;;;14.25;12.07;;;;;;;28.17;53.16;99742.53;5007592;28;20179;-86
2022/09/04 10:00:19;;;;;;;14.32;12.68;;;;;;;28.04;54.53;99733.28;5008864;28;20202;-86
2022/09/04 10:03:13;;;;;;;16.52;12.63;;;;;;;28.10;54.08;99733.16;5008989;28;20204;-85
2022/09/04 10:06:00;;;;;;;18.27;13.02;;;;;;;27.99;54.70;99735.09;5007671;28;20227;-86
2022/09/04 10:09:03;;;;;;;18.40;13.65;;;;;;;28.18;55.63;99728.63;5012617;28;20252;-85
2022/09/04 10:11:59;;;;;;;15.13;13.20;;;;;;;28.23;55.14;99726.78;5011539;28;20181;-85
2022/09/04 10:14:44;;;;;;;15.60;13.30;;;;;;;28.73;54.15;99732.59;5021189;28;20242;-85
2022/09/04 10:17:31;;;;;;;16.77;13.50;;;;;;;28.94;53.29;99721.59;5018074;28;20180;-85
2022/09/04 10:20:35;;;;;;;16.13;12.98;;;;;;;28.49;53.96;99731.38;5025261;28;20175;-85
2022/09/04 10:23:31;;;;;;;15.35;13.70;;;;;;;26.83;58.31;99722.56;5025225;28;20192;-85
2022/09/04 10:26:22;;;;;;;14.98;13.48;;;;;;;27.90;56.03;99711.88;5023261;28;20265;-85
2022/09/04 10:29:10;;;;;;;15.52;13.85;;;;;;;28.44;54.57;99726.28;4984085;28;20221;-85
2022/09/04 10:31:57;;;;;;;14.63;13.13;;;;;;;28.78;52.93;99712.47;4981931;28;20243;-85
2022/09/04 10:34:56;;;;;;;14.25;12.70;;;;;;;28.54;53.57;99719.13;4965317;28;20226;-86
2022/09/04 10:37:45;;;;;;;14.68;13.05;;;;;;;28.64;52.89;99707.59;4984910;28;20190;-86
2022/09/04 10:40:37;;;;;;;14.27;12.82;;;;;;;28.59;53.40;99701.63;5002291;28;20187;-85
2022/09/04 10:43:26;;;;;;;13.48;12.15;;;;;;;28.36;52.36;99701.31;5000842;28;20213;-85
2022/09/04 10:45:59;;;;;;;13.13;11.82;;;;;;;28.34;52.52;99709.16;5001110;28;20187;-85
2022/09/04 10:48:47;;;;;;;15.88;11.90;;;;;;;27.74;51.35;99543.94;5001362;28;20190;-86
2022/09/04 10:51:42;;;;;;;13.10;11.80;;;;;;;27.68;53.03;99581.38;5001142;28;20174;-84
2022/09/04 10:54:34;;;;;;;13.43;12.02;;;;;;;27.64;54.19;99680.31;5002134;28;20170;-84
2022/09/04 10:57:27;;;;;;;15.55;12.65;;;;;;;27.76;54.72;99659.25;5001646;28;20167;-84
2022/09/04 11:00:49;;;;;;;14.38;12.88;;;;;;;28.32;53.20;99686.66;4985519;28;20195;-84
2022/09/04 11:03:52;;;;;;;13.35;11.95;;;;;;;28.42;52.81;99673.38;4886588;29;20592;-86
2022/09/04 11:06:41;;;;;;;14.13;12.73;;;;;;;28.49;53.27;99671.44;4915882;29;20207;-85
2022/09/04 11:09:12;;;;;;;13.38;11.88;;;;;;;28.56;52.47;99668.69;4924301;29;20185;-85
2022/09/04 11:12:02;;;;;;;14.98;12.23;;;;;;;28.63;52.25;99658.97;4923316;29;20243;-85
2022/09/04 11:15:00;;;;;;;13.52;12.20;;;;;;;28.36;51.77;99582.34;4924844;29;20249;-85
2022/09/04 11:17:29;;;;;;;14.18;12.73;;;;;;;28.80;52.12;99655.94;4868274;29;20204;-85
2022/09/04 11:19:54;;;;;;;14.23;12.82;;;;;;;28.85;52.15;99654.91;4867812;29;20200;-85
2022/09/04 11:22:33;;;;;;;12.90;11.55;;;;;;;28.76;51.21;99646.50;4869343;29;20231;-85
2022/09/04 11:25:21;;;;;;;13.43;12.02;;;;;;;28.46;51.72;99635.91;4855648;29;20199;-86
2022/09/04 11:28:01;;;;;;;15.52;12.70;;;;;;;28.78;51.99;99637.75;4875981;29;20211;-86
2022/09/04 11:30:41;;;;;;;14.55;11.95;;;;;;;28.75;52.03;99632.59;4874740;29;20244;-86
2022/09/04 11:33:13;;;;;;;14.50;12.77;;;;;;;28.94;51.62;99636.44;4861082;29;20235;-85
2022/09/04 11:35:53;;;;;;;13.35;11.95;;;;;;;29.37;50.09;99648.31;4866761;29;20237;-85
2022/09/04 11:38:42;;;;;;;13.25;11.85;;;;;;;29.40;49.91;99645.59;4903296;29;20212;-85
2022/09/04 11:41:46;;;;;;;13.15;11.85;;;;;;;29.78;49.80;99640.09;4903494;29;20293;-85
2022/09/04 11:44:44;;;;;;;13.45;11.07;;;;;;;30.11;48.11;99606.91;4902431;29;20190;-85
2022/09/04 11:47:24;;;;;;;12.45;11.00;;;;;;;30.61;46.93;99631.38;4902788;29;20189;-84
2022/09/04 11:50:16;;;;;;;13.95;11.40;;;;;;;30.81;46.62;99632.44;4904463;29;20174;-85
2022/09/04 11:52:54;;;;;;;10.88;9.82;;;;;;;30.58;46.56;99634.97;4902517;29;20159;-85
2022/09/04 11:55:47;;;;;;;11.68;10.50;;;;;;;31.59;44.72;99634.88;4971595;28;20183;-85
2022/09/04 11:58:45;;;;;;;11.43;10.20;;;;;;;31.96;43.96;99633.41;4984570;28;20183;-86
2022/09/04 12:01:29;;;;;;;10.88;9.82;;;;;;;32.00;43.94;99621.03;4999249;28;20254;-85
2022/09/04 12:04:13;;;;;;;11.52;10.40;;;;;;;32.50;43.33;99614.59;5001978;28;20191;-85
2022/09/04 12:07:12;;;;;;;11.43;10.20;;;;;;;31.10;42.97;99453.53;5002857;28;20233;-85
2022/09/04 12:10:01;;;;;;;10.32;9.35;;;;;;;31.60;43.66;99616.50;5002333;28;20263;-85
2022/09/04 12:12:35;;;;;;;10.60;9.70;;;;;;;31.31;43.85;99532.97;5000325;28;20163;-85
2022/09/04 12:15:15;;;;;;;10.30;9.38;;;;;;;31.67;43.39;99609.25;5003971;28;20218;-85
2022/09/04 12:18:19;;;;;;;10.55;9.55;;;;;;;31.95;43.38;99604.63;5002576;28;20263;-85
2022/09/04 12:21:11;;;;;;;10.93;9.85;;;;;;;32.44;43.22;99611.38;5003918;28;20183;-85
2022/09/04 12:23:55;;;;;;;10.27;9.30;;;;;;;31.96;43.74;99615.06;5003120;28;20180;-84
2022/09/04 12:27:03;;;;;;;10.80;9.80;;;;;;;31.91;44.74;99611.78;5002198;28;20184;-85
2022/09/04 12:29:47;;;;;;;10.80;9.80;;;;;;;30.06;47.88;99616.63;4995863;28;20167;-84
2022/09/04 12:32:36;;;;;;;10.93;9.82;;;;;;;30.38;47.60;99604.25;4998253;28;20171;-85
2022/09/04 12:35:18;;;;;;;10.63;9.55;;;;;;;29.89;48.42;99590.22;5024230;28;20706;-84
2022/09/04 12:38:24;;;;;;;11.00;10.00;;;;;;;30.26;49.11;99598.56;5004922;28;20586;-85
2022/09/04 12:41:03;;;;;;;11.05;9.98;;;;;;;31.38;46.20;99560.59;5022524;28;20183;-85
2022/09/04 12:44:02;;;;;;;10.38;9.40;;;;;;;33.00;43.25;99595.84;5021835;28;20284;-85
2022/09/04 12:46:59;;;;;;;10.63;9.48;;;;;;;33.36;41.63;99554.84;5024610;28;20165;-85